sensor_id;sensor_type;location;lat;lon;timestamp;pressure;altitude;pressure_sealevel;temperature;humidity
5952;BME280;3001;42.622;23.194;2023-03-15T00:01:12;90313.47;;;6.49;65.36
5952;BME280;3001;42.622;23.194;2023-03-15T00:03:41;90313.78;;;6.56;66.11
5952;BME280;3001;42.622;23.194;2023-03-15T00:06:09;90309.72;;;6.63;63.38
5952;BME280;3001;42.622;23.194;2023-03-15T00:08:36;90303.88;;;6.41;64.27
5952;BME280;3001;42.622;23.194;2023-03-15T00:11:03;90302.78;;;6.25;63.75
5952;BME280;3001;42.622;23.194;2023-03-15T00:13:30;90301.38;;;6.19;64.58
5952;BME280;3001;42.622;23.194;2023-03-15T00:15:59;90303.31;;;6.05;65.62
5952;BME280;3001;42.622;23.194;2023-03-15T00:18:27;90306.69;;;6.14;68.90
5952;BME280;3001;42.622;23.194;2023-03-15T00:20:55;90310.03;;;6.14;66.99
5952;BME280;3001;42.622;23.194;2023-03-15T00:23:22;90315.94;;;6.15;68.33
5952;BME280;3001;42.622;23.194;2023-03-15T00:25:50;90308.69;;;6.25;68.32
5952;BME280;3001;42.622;23.194;2023-03-15T00:28:17;90304.22;;;6.48;69.86
5952;BME280;3001;42.622;23.194;2023-03-15T00:30:44;90308.84;;;6.68;69.02
5952;BME280;3001;42.622;23.194;2023-03-15T00:33:12;90310.69;;;6.84;66.72
5952;BME280;3001;42.622;23.194;2023-03-15T00:35:40;90298.06;;;6.82;65.75
5952;BME280;3001;42.622;23.194;2023-03-15T00:38:09;90296.44;;;6.86;63.51
5952;BME280;3001;42.622;23.194;2023-03-15T00:40:36;90290.78;;;6.93;64.09
5952;BME280;3001;42.622;23.194;2023-03-15T00:43:03;90283.38;;;7.00;64.02
5952;BME280;3001;42.622;23.194;2023-03-15T00:45:30;90282.00;;;7.02;64.18
5952;BME280;3001;42.622;23.194;2023-03-15T00:47:57;90272.72;;;7.10;64.64
5952;BME280;3001;42.622;23.194;2023-03-15T00:50:24;90268.47;;;7.14;65.07
5952;BME280;3001;42.622;23.194;2023-03-15T00:52:50;90269.25;;;7.31;66.88
5952;BME280;3001;42.622;23.194;2023-03-15T00:55:19;90258.16;;;7.31;67.38
5952;BME280;3001;42.622;23.194;2023-03-15T00:57:46;90261.78;;;7.30;68.18
5952;BME280;3001;42.622;23.194;2023-03-15T01:00:17;90259.38;;;7.42;67.47
5952;BME280;3001;42.622;23.194;2023-03-15T01:02:47;90249.78;;;7.34;67.15
5952;BME280;3001;42.622;23.194;2023-03-15T01:05:14;90253.91;;;7.18;68.79
5952;BME280;3001;42.622;23.194;2023-03-15T01:07:41;90257.69;;;7.20;68.03
5952;BME280;3001;42.622;23.194;2023-03-15T01:10:11;90257.69;;;7.29;67.75
5952;BME280;3001;42.622;23.194;2023-03-15T01:12:39;90249.50;;;7.27;68.31
5952;BME280;3001;42.622;23.194;2023-03-15T01:15:08;90251.44;;;7.47;65.99
5952;BME280;3001;42.622;23.194;2023-03-15T01:17:36;90251.78;;;7.37;67.37
5952;BME280;3001;42.622;23.194;2023-03-15T01:20:03;90241.75;;;7.35;68.11
5952;BME280;3001;42.622;23.194;2023-03-15T01:22:30;90238.25;;;7.40;67.42
5952;BME280;3001;42.622;23.194;2023-03-15T01:24:57;90233.38;;;7.38;64.65
5952;BME280;3001;42.622;23.194;2023-03-15T01:27:24;90241.28;;;7.42;63.20
5952;BME280;3001;42.622;23.194;2023-03-15T01:29:52;90229.09;;;7.42;63.34
5952;BME280;3001;42.622;23.194;2023-03-15T01:32:19;90224.28;;;7.41;60.30
5952;BME280;3001;42.622;23.194;2023-03-15T01:34:45;90226.25;;;7.35;63.50
5952;BME280;3001;42.622;23.194;2023-03-15T01:37:12;90229.72;;;7.39;64.66
5952;BME280;3001;42.622;23.194;2023-03-15T01:39:39;90235.78;;;7.43;64.56
5952;BME280;3001;42.622;23.194;2023-03-15T01:42:06;90232.31;;;7.48;62.27
5952;BME280;3001;42.622;23.194;2023-03-15T01:44:56;90231.25;;;7.40;64.54
5952;BME280;3001;42.622;23.194;2023-03-15T01:47:24;90228.34;;;7.50;64.83
5952;BME280;3001;42.622;23.194;2023-03-15T01:49:55;90213.91;;;7.49;64.38
5952;BME280;3001;42.622;23.194;2023-03-15T01:52:24;90209.03;;;7.48;62.40
5952;BME280;3001;42.622;23.194;2023-03-15T01:54:56;90210.06;;;7.72;60.81
5952;BME280;3001;42.622;23.194;2023-03-15T01:57:28;90195.06;;;7.49;60.46
5952;BME280;3001;42.622;23.194;2023-03-15T02:00:03;90193.56;;;7.39;60.39
5952;BME280;3001;42.622;23.194;2023-03-15T02:02:35;90195.66;;;7.54;60.85
5952;BME280;3001;42.622;23.194;2023-03-15T02:05:06;90187.94;;;7.46;61.87
5952;BME280;3001;42.622;23.194;2023-03-15T02:07:36;90183.56;;;7.29;65.07
5952;BME280;3001;42.622;23.194;2023-03-15T02:10:07;90176.41;;;7.35;64.93
5952;BME280;3001;42.622;23.194;2023-03-15T02:12:39;90179.41;;;7.45;66.19
5952;BME280;3001;42.622;23.194;2023-03-15T02:15:09;90179.72;;;7.52;64.71
5952;BME280;3001;42.622;23.194;2023-03-15T02:17:38;90174.22;;;7.54;63.42
5952;BME280;3001;42.622;23.194;2023-03-15T02:20:14;90171.06;;;7.48;62.51
5952;BME280;3001;42.622;23.194;2023-03-15T02:22:49;90169.41;;;7.44;62.56
5952;BME280;3001;42.622;23.194;2023-03-15T02:25:23;90165.16;;;7.31;62.57
5952;BME280;3001;42.622;23.194;2023-03-15T02:27:53;90166.88;;;7.18;62.41
5952;BME280;3001;42.622;23.194;2023-03-15T02:30:21;90161.88;;;7.13;63.46
5952;BME280;3001;42.622;23.194;2023-03-15T02:32:48;90166.59;;;7.11;63.38
5952;BME280;3001;42.622;23.194;2023-03-15T02:35:22;90165.09;;;7.02;64.21
5952;BME280;3001;42.622;23.194;2023-03-15T02:37:49;90163.88;;;6.91;63.40
5952;BME280;3001;42.622;23.194;2023-03-15T02:40:17;90158.88;;;6.86;63.28
5952;BME280;3001;42.622;23.194;2023-03-15T02:42:45;90159.75;;;6.90;64.68
5952;BME280;3001;42.622;23.194;2023-03-15T02:45:15;90158.13;;;6.85;64.83
5952;BME280;3001;42.622;23.194;2023-03-15T02:47:43;90156.13;;;6.82;66.84
5952;BME280;3001;42.622;23.194;2023-03-15T02:50:10;90151.41;;;6.93;67.14
5952;BME280;3001;42.622;23.194;2023-03-15T02:52:37;90147.03;;;6.85;65.46
5952;BME280;3001;42.622;23.194;2023-03-15T02:55:05;90147.66;;;6.74;65.00
5952;BME280;3001;42.622;23.194;2023-03-15T02:57:32;90138.53;;;6.68;64.45
5952;BME280;3001;42.622;23.194;2023-03-15T02:59:58;90136.88;;;6.80;65.01
5952;BME280;3001;42.622;23.194;2023-03-15T03:02:32;90134.91;;;6.60;66.15
5952;BME280;3001;42.622;23.194;2023-03-15T03:04:59;90127.16;;;6.60;66.65
5952;BME280;3001;42.622;23.194;2023-03-15T03:07:25;90118.97;;;6.58;66.07
5952;BME280;3001;42.622;23.194;2023-03-15T03:09:53;90108.66;;;6.58;67.00
5952;BME280;3001;42.622;23.194;2023-03-15T03:12:20;90103.03;;;6.65;70.21
5952;BME280;3001;42.622;23.194;2023-03-15T03:14:46;90103.59;;;6.95;67.56
5952;BME280;3001;42.622;23.194;2023-03-15T03:17:13;90108.16;;;6.73;69.36
5952;BME280;3001;42.622;23.194;2023-03-15T03:19:41;90117.91;;;6.68;68.20
5952;BME280;3001;42.622;23.194;2023-03-15T03:22:08;90115.31;;;6.68;66.75
5952;BME280;3001;42.622;23.194;2023-03-15T03:24:37;90113.94;;;6.62;67.14
5952;BME280;3001;42.622;23.194;2023-03-15T03:27:04;90111.06;;;6.55;67.27
5952;BME280;3001;42.622;23.194;2023-03-15T03:29:31;90107.75;;;6.54;68.34
5952;BME280;3001;42.622;23.194;2023-03-15T03:31:58;90113.66;;;6.63;68.62
5952;BME280;3001;42.622;23.194;2023-03-15T03:34:24;90116.22;;;6.72;70.06
5952;BME280;3001;42.622;23.194;2023-03-15T03:36:52;90111.19;;;6.83;70.55
5952;BME280;3001;42.622;23.194;2023-03-15T03:39:19;90111.94;;;6.92;70.02
5952;BME280;3001;42.622;23.194;2023-03-15T03:41:46;90113.16;;;6.95;70.02
5952;BME280;3001;42.622;23.194;2023-03-15T03:44:12;90114.19;;;7.02;68.87
5952;BME280;3001;42.622;23.194;2023-03-15T03:46:39;90104.31;;;7.04;68.37
5952;BME280;3001;42.622;23.194;2023-03-15T03:49:06;90102.94;;;7.07;69.01
5952;BME280;3001;42.622;23.194;2023-03-15T03:51:32;90088.09;;;7.04;70.54
5952;BME280;3001;42.622;23.194;2023-03-15T03:54:01;90080.03;;;7.05;69.28
5952;BME280;3001;42.622;23.194;2023-03-15T03:56:27;90072.88;;;7.11;70.35
5952;BME280;3001;42.622;23.194;2023-03-15T03:58:54;90078.19;;;7.14;69.89
5952;BME280;3001;42.622;23.194;2023-03-15T04:01:21;90076.81;;;7.17;69.66
5952;BME280;3001;42.622;23.194;2023-03-15T04:03:48;90079.06;;;7.27;68.56
5952;BME280;3001;42.622;23.194;2023-03-15T04:06:15;90081.00;;;7.30;67.94
5952;BME280;3001;42.622;23.194;2023-03-15T04:08:42;90083.59;;;7.30;67.88
5952;BME280;3001;42.622;23.194;2023-03-15T04:11:10;90085.09;;;7.31;68.86
5952;BME280;3001;42.622;23.194;2023-03-15T04:13:41;90093.16;;;7.38;68.25
5952;BME280;3001;42.622;23.194;2023-03-15T04:16:08;90091.47;;;7.42;68.03
5952;BME280;3001;42.622;23.194;2023-03-15T04:18:35;90084.34;;;7.39;68.71
5952;BME280;3001;42.622;23.194;2023-03-15T04:21:01;90086.94;;;7.30;67.73
5952;BME280;3001;42.622;23.194;2023-03-15T04:23:28;90080.75;;;7.23;68.90
5952;BME280;3001;42.622;23.194;2023-03-15T04:25:55;90082.28;;;7.15;69.46
5952;BME280;3001;42.622;23.194;2023-03-15T04:28:23;90086.41;;;7.08;68.58
5952;BME280;3001;42.622;23.194;2023-03-15T04:30:50;90085.34;;;7.09;68.62
5952;BME280;3001;42.622;23.194;2023-03-15T04:33:17;90080.03;;;7.05;70.35
5952;BME280;3001;42.622;23.194;2023-03-15T04:35:43;90080.94;;;7.09;69.05
5952;BME280;3001;42.622;23.194;2023-03-15T04:38:10;90080.00;;;7.14;70.29
5952;BME280;3001;42.622;23.194;2023-03-15T04:40:37;90081.06;;;7.13;71.50
5952;BME280;3001;42.622;23.194;2023-03-15T04:43:04;90077.97;;;7.28;70.32
5952;BME280;3001;42.622;23.194;2023-03-15T04:45:32;90075.78;;;7.47;68.42
5952;BME280;3001;42.622;23.194;2023-03-15T04:48:00;90074.41;;;7.49;66.54
5952;BME280;3001;42.622;23.194;2023-03-15T04:50:27;90067.09;;;7.51;63.73
5952;BME280;3001;42.622;23.194;2023-03-15T04:52:54;90060.72;;;7.49;67.34
5952;BME280;3001;42.622;23.194;2023-03-15T04:55:22;90074.41;;;7.49;68.22
5952;BME280;3001;42.622;23.194;2023-03-15T04:57:49;90065.88;;;7.49;67.98
5952;BME280;3001;42.622;23.194;2023-03-15T05:00:16;90066.66;;;7.49;69.14
5952;BME280;3001;42.622;23.194;2023-03-15T05:02:44;90066.03;;;7.52;70.19
5952;BME280;3001;42.622;23.194;2023-03-15T05:05:16;90064.38;;;7.48;71.24
5952;BME280;3001;42.622;23.194;2023-03-15T05:07:43;90057.59;;;7.35;71.51
5952;BME280;3001;42.622;23.194;2023-03-15T05:10:11;90049.59;;;7.19;68.60
5952;BME280;3001;42.622;23.194;2023-03-15T05:12:38;90049.31;;;7.21;70.27
5952;BME280;3001;42.622;23.194;2023-03-15T05:15:06;90045.22;;;7.20;68.02
5952;BME280;3001;42.622;23.194;2023-03-15T05:17:32;90050.44;;;7.40;69.19
5952;BME280;3001;42.622;23.194;2023-03-15T05:20:00;90051.66;;;7.43;67.51
5952;BME280;3001;42.622;23.194;2023-03-15T05:22:32;90059.75;;;7.62;67.59
5952;BME280;3001;42.622;23.194;2023-03-15T05:24:59;90068.44;;;7.86;66.57
5952;BME280;3001;42.622;23.194;2023-03-15T05:27:25;90068.03;;;8.05;67.74
5952;BME280;3001;42.622;23.194;2023-03-15T05:29:52;90068.56;;;7.90;67.65
5952;BME280;3001;42.622;23.194;2023-03-15T05:32:19;90058.38;;;7.93;68.57
5952;BME280;3001;42.622;23.194;2023-03-15T05:34:51;90058.03;;;7.95;67.98
5952;BME280;3001;42.622;23.194;2023-03-15T05:37:21;90056.03;;;8.29;65.75
5952;BME280;3001;42.622;23.194;2023-03-15T05:39:48;90053.63;;;8.16;66.80
5952;BME280;3001;42.622;23.194;2023-03-15T05:42:15;90047.50;;;8.49;67.20
5952;BME280;3001;42.622;23.194;2023-03-15T05:44:46;90049.06;;;8.42;65.56
5952;BME280;3001;42.622;23.194;2023-03-15T05:47:13;90041.13;;;8.47;65.39
5952;BME280;3001;42.622;23.194;2023-03-15T05:52:21;90034.72;;;8.44;67.26
5952;BME280;3001;42.622;23.194;2023-03-15T05:54:48;90028.66;;;8.60;68.01
5952;BME280;3001;42.622;23.194;2023-03-15T05:57:15;90035.72;;;8.72;68.47
5952;BME280;3001;42.622;23.194;2023-03-15T05:59:41;90039.19;;;8.76;69.49
5952;BME280;3001;42.622;23.194;2023-03-15T06:02:08;90036.41;;;8.93;68.08
5952;BME280;3001;42.622;23.194;2023-03-15T06:04:36;90044.94;;;8.93;66.30
5952;BME280;3001;42.622;23.194;2023-03-15T06:07:03;90036.28;;;8.89;67.99
5952;BME280;3001;42.622;23.194;2023-03-15T06:09:31;90050.88;;;8.94;66.14
5952;BME280;3001;42.622;23.194;2023-03-15T06:11:58;90057.38;;;9.00;66.29
5952;BME280;3001;42.622;23.194;2023-03-15T06:14:24;90056.19;;;9.09;64.79
5952;BME280;3001;42.622;23.194;2023-03-15T06:16:51;90045.97;;;9.13;66.15
5952;BME280;3001;42.622;23.194;2023-03-15T06:19:18;90060.88;;;9.16;67.37
5952;BME280;3001;42.622;23.194;2023-03-15T06:21:45;90057.19;;;9.17;68.03
5952;BME280;3001;42.622;23.194;2023-03-15T06:24:12;90053.56;;;9.30;68.05
5952;BME280;3001;42.622;23.194;2023-03-15T06:26:40;90048.47;;;9.33;63.54
5952;BME280;3001;42.622;23.194;2023-03-15T06:29:07;90040.59;;;9.30;63.43
5952;BME280;3001;42.622;23.194;2023-03-15T06:31:34;90051.66;;;9.18;64.47
5952;BME280;3001;42.622;23.194;2023-03-15T06:34:00;90055.03;;;9.19;66.46
5952;BME280;3001;42.622;23.194;2023-03-15T06:36:27;90049.31;;;9.37;66.32
5952;BME280;3001;42.622;23.194;2023-03-15T06:38:55;90047.28;;;9.43;66.04
5952;BME280;3001;42.622;23.194;2023-03-15T06:41:21;90053.88;;;9.52;64.25
5952;BME280;3001;42.622;23.194;2023-03-15T06:43:49;90047.63;;;9.53;64.43
5952;BME280;3001;42.622;23.194;2023-03-15T06:46:16;90042.88;;;9.55;64.62
5952;BME280;3001;42.622;23.194;2023-03-15T06:48:43;90045.03;;;9.65;63.36
5952;BME280;3001;42.622;23.194;2023-03-15T06:51:09;90042.88;;;9.67;63.59
5952;BME280;3001;42.622;23.194;2023-03-15T06:53:36;90045.59;;;9.71;61.97
5952;BME280;3001;42.622;23.194;2023-03-15T06:56:03;90047.97;;;9.76;61.42
5952;BME280;3001;42.622;23.194;2023-03-15T06:58:30;90038.75;;;9.78;61.41
5952;BME280;3001;42.622;23.194;2023-03-15T07:00:58;90036.59;;;9.80;61.34
5952;BME280;3001;42.622;23.194;2023-03-15T07:03:25;90036.59;;;9.92;61.18
5952;BME280;3001;42.622;23.194;2023-03-15T07:05:51;90042.75;;;10.00;62.04
5952;BME280;3001;42.622;23.194;2023-03-15T07:08:19;90030.25;;;10.02;59.54
5952;BME280;3001;42.622;23.194;2023-03-15T07:10:46;90034.13;;;9.96;60.88
5952;BME280;3001;42.622;23.194;2023-03-15T07:13:14;90039.63;;;9.94;61.43
5952;BME280;3001;42.622;23.194;2023-03-15T07:15:41;90045.47;;;9.91;61.49
5952;BME280;3001;42.622;23.194;2023-03-15T07:18:09;90049.56;;;9.92;62.38
5952;BME280;3001;42.622;23.194;2023-03-15T07:20:36;90045.78;;;10.14;59.98
5952;BME280;3001;42.622;23.194;2023-03-15T07:23:02;90046.22;;;10.16;58.48
5952;BME280;3001;42.622;23.194;2023-03-15T07:25:29;90039.19;;;10.16;60.27
5952;BME280;3001;42.622;23.194;2023-03-15T07:27:56;90037.78;;;10.19;58.08
5952;BME280;3001;42.622;23.194;2023-03-15T07:30:23;90032.88;;;10.29;57.21
5952;BME280;3001;42.622;23.194;2023-03-15T07:32:50;90039.81;;;10.25;58.35
5952;BME280;3001;42.622;23.194;2023-03-15T07:35:18;90036.34;;;10.33;59.03
5952;BME280;3001;42.622;23.194;2023-03-15T07:37:45;90040.53;;;10.37;58.39
5952;BME280;3001;42.622;23.194;2023-03-15T07:40:12;90038.47;;;10.43;57.99
5952;BME280;3001;42.622;23.194;2023-03-15T07:42:40;90045.25;;;10.59;59.52
5952;BME280;3001;42.622;23.194;2023-03-15T07:45:08;90051.81;;;10.69;58.07
5952;BME280;3001;42.622;23.194;2023-03-15T07:47:35;90040.72;;;10.84;57.89
5952;BME280;3001;42.622;23.194;2023-03-15T07:50:02;90042.22;;;10.85;58.79
5952;BME280;3001;42.622;23.194;2023-03-15T07:52:30;90039.53;;;10.81;57.32
5952;BME280;3001;42.622;23.194;2023-03-15T07:54:57;90036.44;;;10.91;58.06
5952;BME280;3001;42.622;23.194;2023-03-15T07:57:24;90031.34;;;10.95;58.61
5952;BME280;3001;42.622;23.194;2023-03-15T07:59:51;90029.59;;;10.99;59.04
5952;BME280;3001;42.622;23.194;2023-03-15T08:02:18;90032.16;;;10.83;59.06
5952;BME280;3001;42.622;23.194;2023-03-15T08:04:44;90025.34;;;10.79;59.69
5952;BME280;3001;42.622;23.194;2023-03-15T08:07:11;90026.97;;;10.83;59.15
5952;BME280;3001;42.622;23.194;2023-03-15T08:09:39;90027.25;;;10.94;59.99
5952;BME280;3001;42.622;23.194;2023-03-15T08:12:06;90029.25;;;11.00;59.28
5952;BME280;3001;42.622;23.194;2023-03-15T08:14:33;90018.06;;;11.12;57.60
5952;BME280;3001;42.622;23.194;2023-03-15T08:17:00;90030.47;;;11.18;58.23
5952;BME280;3001;42.622;23.194;2023-03-15T08:19:26;90033.34;;;11.29;57.17
5952;BME280;3001;42.622;23.194;2023-03-15T08:21:53;90027.13;;;11.33;57.42
5952;BME280;3001;42.622;23.194;2023-03-15T08:24:20;90028.41;;;11.39;56.23
5952;BME280;3001;42.622;23.194;2023-03-15T08:26:48;90022.16;;;11.28;56.52
5952;BME280;3001;42.622;23.194;2023-03-15T08:29:15;90037.25;;;11.23;57.15
5952;BME280;3001;42.622;23.194;2023-03-15T08:31:42;90036.50;;;11.22;57.44
5952;BME280;3001;42.622;23.194;2023-03-15T08:34:08;90026.38;;;11.17;57.23
5952;BME280;3001;42.622;23.194;2023-03-15T08:36:36;90021.66;;;11.23;57.35
5952;BME280;3001;42.622;23.194;2023-03-15T08:39:03;90021.16;;;11.33;56.56
5952;BME280;3001;42.622;23.194;2023-03-15T08:41:30;90010.50;;;11.38;57.32
5952;BME280;3001;42.622;23.194;2023-03-15T08:43:58;90016.56;;;11.26;55.91
5952;BME280;3001;42.622;23.194;2023-03-15T08:46:25;90015.22;;;11.48;55.09
5952;BME280;3001;42.622;23.194;2023-03-15T08:48:52;90012.97;;;11.46;53.21
5952;BME280;3001;42.622;23.194;2023-03-15T08:51:19;90013.38;;;11.48;50.74
5952;BME280;3001;42.622;23.194;2023-03-15T08:53:46;90014.88;;;11.34;52.21
5952;BME280;3001;42.622;23.194;2023-03-15T08:56:13;90016.97;;;11.28;54.30
5952;BME280;3001;42.622;23.194;2023-03-15T08:58:40;90003.81;;;11.21;51.83
5952;BME280;3001;42.622;23.194;2023-03-15T09:01:10;90011.28;;;11.38;51.15
5952;BME280;3001;42.622;23.194;2023-03-15T09:03:36;90020.66;;;11.43;50.78
5952;BME280;3001;42.622;23.194;2023-03-15T09:06:04;90025.53;;;11.44;49.61
5952;BME280;3001;42.622;23.194;2023-03-15T09:08:31;90025.53;;;11.44;47.99
5952;BME280;3001;42.622;23.194;2023-03-15T09:10:58;90024.88;;;11.47;47.61
5952;BME280;3001;42.622;23.194;2023-03-15T09:13:28;90027.88;;;11.34;46.89
5952;BME280;3001;42.622;23.194;2023-03-15T09:15:55;90031.56;;;11.48;47.05
5952;BME280;3001;42.622;23.194;2023-03-15T09:18:24;90028.72;;;11.53;48.17
5952;BME280;3001;42.622;23.194;2023-03-15T09:20:50;90018.84;;;11.28;47.26
5952;BME280;3001;42.622;23.194;2023-03-15T09:23:17;90032.97;;;11.30;49.56
5952;BME280;3001;42.622;23.194;2023-03-15T09:25:44;90026.69;;;11.31;48.61
5952;BME280;3001;42.622;23.194;2023-03-15T09:28:11;90031.19;;;11.62;49.08
5952;BME280;3001;42.622;23.194;2023-03-15T09:30:40;90021.88;;;11.61;50.36
5952;BME280;3001;42.622;23.194;2023-03-15T09:33:07;90010.13;;;11.82;49.42
5952;BME280;3001;42.622;23.194;2023-03-15T09:35:35;90002.34;;;11.67;50.51
5952;BME280;3001;42.622;23.194;2023-03-15T09:38:02;90000.03;;;11.81;49.26
5952;BME280;3001;42.622;23.194;2023-03-15T09:40:31;89992.25;;;11.65;50.67
5952;BME280;3001;42.622;23.194;2023-03-15T09:43:02;89994.53;;;11.67;49.96
5952;BME280;3001;42.622;23.194;2023-03-15T09:45:51;89995.25;;;11.83;49.50
5952;BME280;3001;42.622;23.194;2023-03-15T09:48:28;89991.03;;;11.94;49.93
5952;BME280;3001;42.622;23.194;2023-03-15T09:51:01;89983.66;;;11.96;47.66
5952;BME280;3001;42.622;23.194;2023-03-15T09:53:35;90005.78;;;12.05;45.90
5952;BME280;3001;42.622;23.194;2023-03-15T09:56:02;90011.81;;;12.09;46.03
5952;BME280;3001;42.622;23.194;2023-03-15T09:58:31;90021.72;;;12.03;46.02
5952;BME280;3001;42.622;23.194;2023-03-15T10:01:01;90024.69;;;12.02;46.03
5952;BME280;3001;42.622;23.194;2023-03-15T10:03:34;90028.88;;;12.07;46.16
5952;BME280;3001;42.622;23.194;2023-03-15T10:06:12;90023.81;;;12.13;47.78
5952;BME280;3001;42.622;23.194;2023-03-15T10:08:42;90026.19;;;12.03;48.18
5952;BME280;3001;42.622;23.194;2023-03-15T10:11:18;90026.50;;;12.17;50.77
5952;BME280;3001;42.622;23.194;2023-03-15T10:13:57;90021.03;;;12.22;51.10
5952;BME280;3001;42.622;23.194;2023-03-15T10:16:33;90011.53;;;11.95;48.31
5952;BME280;3001;42.622;23.194;2023-03-15T10:19:12;90023.91;;;12.02;51.32
5952;BME280;3001;42.622;23.194;2023-03-15T10:21:48;90023.47;;;12.15;52.09
5952;BME280;3001;42.622;23.194;2023-03-15T10:24:19;90019.53;;;12.21;52.01
5952;BME280;3001;42.622;23.194;2023-03-15T10:26:49;90015.25;;;12.13;52.04
5952;BME280;3001;42.622;23.194;2023-03-15T10:29:19;90004.66;;;12.21;52.76
5952;BME280;3001;42.622;23.194;2023-03-15T10:31:46;89999.41;;;12.02;52.92
5952;BME280;3001;42.622;23.194;2023-03-15T10:34:14;90010.34;;;11.93;52.42
5952;BME280;3001;42.622;23.194;2023-03-15T10:36:50;90006.75;;;11.97;52.63
5952;BME280;3001;42.622;23.194;2023-03-15T10:39:18;90021.03;;;11.72;52.52
5952;BME280;3001;42.622;23.194;2023-03-15T10:41:46;90022.06;;;11.68;52.19
5952;BME280;3001;42.622;23.194;2023-03-15T10:44:15;90020.28;;;11.72;50.92
5952;BME280;3001;42.622;23.194;2023-03-15T10:46:59;90016.06;;;11.52;51.20
5952;BME280;3001;42.622;23.194;2023-03-15T10:49:32;90025.53;;;11.44;51.10
5952;BME280;3001;42.622;23.194;2023-03-15T10:52:01;90031.25;;;11.34;51.38
5952;BME280;3001;42.622;23.194;2023-03-15T10:54:30;90030.06;;;11.16;52.71
5952;BME280;3001;42.622;23.194;2023-03-15T10:56:59;90026.84;;;11.07;52.27
5952;BME280;3001;42.622;23.194;2023-03-15T10:59:28;90023.56;;;11.10;53.83
5952;BME280;3001;42.622;23.194;2023-03-15T11:02:17;90022.47;;;11.11;54.49
5952;BME280;3001;42.622;23.194;2023-03-15T11:04:47;90013.78;;;11.04;54.93
5952;BME280;3001;42.622;23.194;2023-03-15T11:07:16;90011.91;;;11.04;58.65
5952;BME280;3001;42.622;23.194;2023-03-15T11:09:46;90014.78;;;11.15;60.14
5952;BME280;3001;42.622;23.194;2023-03-15T11:12:21;90005.22;;;11.03;60.67
5952;BME280;3001;42.622;23.194;2023-03-15T11:14:50;90010.25;;;10.96;59.91
5952;BME280;3001;42.622;23.194;2023-03-15T11:17:19;90014.63;;;10.80;58.79
5952;BME280;3001;42.622;23.194;2023-03-15T11:19:52;90010.19;;;10.81;60.70
5952;BME280;3001;42.622;23.194;2023-03-15T11:22:22;90020.16;;;10.79;60.45
5952;BME280;3001;42.622;23.194;2023-03-15T11:24:49;90011.75;;;10.70;60.62
5952;BME280;3001;42.622;23.194;2023-03-15T11:27:18;90020.16;;;10.79;60.99
5952;BME280;3001;42.622;23.194;2023-03-15T11:29:48;90014.38;;;10.70;61.84
5952;BME280;3001;42.622;23.194;2023-03-15T11:32:19;90017.56;;;10.79;61.98
5952;BME280;3001;42.622;23.194;2023-03-15T11:34:51;90011.81;;;10.85;61.08
5952;BME280;3001;42.622;23.194;2023-03-15T11:37:23;89997.47;;;10.91;62.92
5952;BME280;3001;42.622;23.194;2023-03-15T11:39:56;89995.50;;;11.00;62.59
5952;BME280;3001;42.622;23.194;2023-03-15T11:42:26;89990.72;;;11.18;60.43
5952;BME280;3001;42.622;23.194;2023-03-15T11:44:57;89991.53;;;10.91;61.39
5952;BME280;3001;42.622;23.194;2023-03-15T11:47:36;89988.78;;;10.99;62.06
5952;BME280;3001;42.622;23.194;2023-03-15T11:50:06;89989.72;;;11.07;60.95
5952;BME280;3001;42.622;23.194;2023-03-15T11:52:34;89985.56;;;10.90;60.51
5952;BME280;3001;42.622;23.194;2023-03-15T11:55:01;89977.63;;;10.99;62.44
5952;BME280;3001;42.622;23.194;2023-03-15T11:57:40;89969.41;;;10.97;61.54
5952;BME280;3001;42.622;23.194;2023-03-15T12:00:18;89969.25;;;10.90;59.72
5952;BME280;3001;42.622;23.194;2023-03-15T12:02:49;89967.53;;;10.82;61.05
5952;BME280;3001;42.622;23.194;2023-03-15T12:05:40;89974.91;;;10.80;61.10
5952;BME280;3001;42.622;23.194;2023-03-15T12:08:21;89967.53;;;10.39;61.17
5952;BME280;3001;42.622;23.194;2023-03-15T12:10:50;89978.53;;;10.48;62.01
5952;BME280;3001;42.622;23.194;2023-03-15T12:13:23;89985.06;;;10.42;61.93
5952;BME280;3001;42.622;23.194;2023-03-15T12:15:51;89984.03;;;10.46;61.40
5952;BME280;3001;42.622;23.194;2023-03-15T12:18:28;89973.09;;;10.53;60.49
5952;BME280;3001;42.622;23.194;2023-03-15T12:21:05;89977.31;;;10.57;60.43
5952;BME280;3001;42.622;23.194;2023-03-15T12:23:43;89978.28;;;10.53;59.91
5952;BME280;3001;42.622;23.194;2023-03-15T12:26:22;89970.25;;;10.58;59.81
5952;BME280;3001;42.622;23.194;2023-03-15T12:28:52;89974.16;;;10.64;59.50
5952;BME280;3001;42.622;23.194;2023-03-15T12:31:42;89976.38;;;10.50;59.02
5952;BME280;3001;42.622;23.194;2023-03-15T12:34:13;89972.69;;;10.51;59.39
5952;BME280;3001;42.622;23.194;2023-03-15T12:36:44;89978.53;;;10.48;59.64
5952;BME280;3001;42.622;23.194;2023-03-15T12:39:35;89980.09;;;10.37;59.02
5952;BME280;3001;42.622;23.194;2023-03-15T12:42:03;89976.59;;;10.45;58.81
5952;BME280;3001;42.622;23.194;2023-03-15T12:44:38;89971.44;;;10.33;59.35
5952;BME280;3001;42.622;23.194;2023-03-15T12:47:06;89977.41;;;10.33;59.63
5952;BME280;3001;42.622;23.194;2023-03-15T12:49:37;89978.81;;;10.31;59.54
5952;BME280;3001;42.622;23.194;2023-03-15T12:52:11;89979.59;;;10.32;58.97
5952;BME280;3001;42.622;23.194;2023-03-15T12:54:44;89975.41;;;10.42;59.36
5952;BME280;3001;42.622;23.194;2023-03-15T12:57:14;89976.94;;;10.43;58.43
5952;BME280;3001;42.622;23.194;2023-03-15T12:59:48;89968.44;;;10.31;59.34
5952;BME280;3001;42.622;23.194;2023-03-15T13:02:27;89971.69;;;10.28;58.49
5952;BME280;3001;42.622;23.194;2023-03-15T13:05:14;89972.16;;;10.45;59.39
5952;BME280;3001;42.622;23.194;2023-03-15T13:07:56;89969.63;;;10.33;59.33
5952;BME280;3001;42.622;23.194;2023-03-15T13:10:42;89960.50;;;10.39;59.77
5952;BME280;3001;42.622;23.194;2023-03-15T13:13:30;89969.69;;;10.10;61.70
5952;BME280;3001;42.622;23.194;2023-03-15T13:16:16;89968.41;;;10.04;62.32
5952;BME280;3001;42.622;23.194;2023-03-15T13:18:51;89963.63;;;10.06;62.30
5952;BME280;3001;42.622;23.194;2023-03-15T13:21:25;89967.66;;;10.03;62.41
5952;BME280;3001;42.622;23.194;2023-03-15T13:23:57;89965.28;;;9.86;64.87
5952;BME280;3001;42.622;23.194;2023-03-15T13:26:38;89969.94;;;9.81;66.15
5952;BME280;3001;42.622;23.194;2023-03-15T13:29:11;89974.78;;;9.94;65.78
5952;BME280;3001;42.622;23.194;2023-03-15T13:31:42;89972.28;;;9.98;66.65